Time;durP1;ratioP1;P1;durP2;ratioP2;P2;SDS_P1;SDS_P2;PMS_P1;PMS_P2;Temp;Humidity;BMP_temperature;BMP_pressure;BME280_temperature;BME280_humidity;BME280_pressure;Samples;Min_cycle;Max_cycle;Signal;HPM_P1;HPM_P2
2022/10/20 00:01:21;;;;;;;9.32;2.90;;;22.50;99.90;;;;;;5017343;28;20383;-90
2022/10/20 00:03:49;;;;;;;7.40;2.47;;;22.40;99.90;;;;;;5017151;28;20384;-88
2022/10/20 00:06:18;;;;;;;6.57;2.30;;;22.20;99.90;;;;;;5018217;28;20375;-88
2022/10/20 00:08:46;;;;;;;7.93;2.33;;;22.10;99.90;;;;;;5016734;28;20426;-81
2022/10/20 00:11:16;;;;;;;4.75;2.20;;;22.00;99.90;;;;;;5017051;28;20367;-90
2022/10/20 00:13:45;;;;;;;5.90;3.03;;;22.00;99.90;;;;;;5018287;28;20733;-81
2022/10/20 00:16:14;;;;;;;7.22;3.20;;;21.90;99.90;;;;;;5017134;28;20375;-88
2022/10/20 00:18:41;;;;;;;7.15;3.42;;;22.10;99.90;;;;;;5017349;28;20401;-91
2022/10/20 00:21:15;;;;;;;4.80;2.42;;;22.20;99.90;;;;;;5017073;28;20387;-83
2022/10/20 00:23:43;;;;;;;6.03;2.78;;;22.60;99.90;;;;;;5027342;28;20385;-90
2022/10/20 00:26:19;;;;;;;7.20;2.83;;;23.30;99.90;;;;;;5025546;28;20394;-90
2022/10/20 00:28:46;;;;;;;5.65;2.67;;;24.00;99.90;;;;;;5019177;28;20490;-85
2022/10/20 00:31:14;;;;;;;6.03;2.30;;;24.50;99.90;;;;;;5019053;28;20712;-86
2022/10/20 00:33:41;;;;;;;4.82;2.45;;;24.80;99.90;;;;;;5018329;28;20387;-89
2022/10/20 00:36:11;;;;;;;7.15;2.50;;;25.20;99.90;;;;;;5017760;28;20438;-87
2022/10/20 00:38:38;;;;;;;5.47;2.10;;;25.10;99.90;;;;;;5019571;28;20746;-82
2022/10/20 00:41:05;;;;;;;5.60;2.10;;;25.10;99.90;;;;;;5018357;28;20518;-82
2022/10/20 00:43:52;;;;;;;5.90;2.40;;;25.10;99.90;;;;;;5017538;28;20836;-84
2022/10/20 00:46:27;;;;;;;5.95;2.42;;;24.90;99.90;;;;;;5018678;28;20371;-83
2022/10/20 00:48:58;;;;;;;6.78;2.22;;;24.70;99.90;;;;;;5019109;28;20413;-81
2022/10/20 00:51:28;;;;;;;7.68;2.67;;;24.60;99.90;;;;;;5017014;28;20469;-82
2022/10/20 00:54:08;;;;;;;5.93;2.00;;;24.50;99.90;;;;;;5018309;28;20380;-86
2022/10/20 00:56:39;;;;;;;7.17;2.20;;;24.50;99.90;;;;;;5017492;28;20756;-81
2022/10/20 00:59:06;;;;;;;7.57;2.37;;;24.40;99.90;;;;;;5017550;28;20863;-82
2022/10/20 01:01:34;;;;;;;5.88;2.42;;;24.30;99.90;;;;;;5015853;28;20400;-88
2022/10/20 01:04:01;;;;;;;8.10;2.60;;;24.10;99.90;;;;;;5016902;28;20470;-85
2022/10/20 01:06:28;;;;;;;6.97;2.50;;;24.00;99.90;;;;;;5017549;28;20375;-84
2022/10/20 01:08:55;;;;;;;10.70;2.70;;;23.90;99.90;;;;;;5015845;28;20434;-82
2022/10/20 01:11:34;;;;;;;8.43;2.95;;;23.90;99.90;;;;;;5015721;28;20894;-90
2022/10/20 01:14:15;;;;;;;9.65;2.70;;;23.90;99.90;;;;;;5015039;28;20724;-91
2022/10/20 01:17:00;;;;;;;5.95;2.83;;;23.80;99.90;;;;;;5014881;28;20378;-85
2022/10/20 01:19:48;;;;;;;8.82;2.65;;;23.80;99.90;;;;;;5015304;28;20375;-81
2022/10/20 01:22:24;;;;;;;7.05;2.42;;;23.70;99.90;;;;;;5015215;28;20711;-81
2022/10/20 01:25:11;;;;;;;7.22;2.53;;;23.60;99.90;;;;;;5013042;28;20902;-89
2022/10/20 01:27:41;;;;;;;8.07;2.40;;;23.40;99.90;;;;;;5014574;28;20815;-81
2022/10/20 01:30:12;;;;;;;10.77;2.60;;;23.30;99.90;;;;;;5014776;28;20387;-81
2022/10/20 01:33:05;;;;;;;6.75;2.60;;;23.10;99.90;;;;;;5014506;28;20383;-80
2022/10/20 01:36:09;;;;;;;10.65;5.75;;;23.10;99.90;;;;;;5014996;28;20446;-86
2022/10/20 01:39:02;;;;;;;16.33;12.07;;;23.00;99.90;;;;;;5015361;28;20441;-82
2022/10/20 01:41:58;;;;;;;9.85;3.45;;;22.90;99.90;;;;;;5014557;28;20462;-88
2022/10/20 01:44:27;;;;;;;8.13;3.28;;;22.80;99.90;;;;;;5031594;28;20396;-81
2022/10/20 01:46:56;;;;;;;9.25;4.00;;;22.60;99.90;;;;;;5031802;28;20381;-86
2022/10/20 01:49:24;;;;;;;8.52;3.58;;;22.50;99.90;;;;;;5031460;28;20813;-80
2022/10/20 01:51:51;;;;;;;9.32;3.30;;;22.40;99.90;;;;;;5031502;28;20393;-87
2022/10/20 01:54:24;;;;;;;11.55;5.78;;;22.20;99.90;;;;;;5031230;28;20466;-79
2022/10/20 01:57:27;;;;;;;31.48;21.23;;;22.20;99.90;;;;;;5031307;28;20373;-85
2022/10/20 02:00:03;;;;;;;17.52;9.52;;;22.20;99.90;;;;;;5014464;28;20373;-81
2022/10/20 02:03:03;;;;;;;21.00;14.93;;;22.20;99.90;;;;;;5030052;28;20408;-85
2022/10/20 02:05:57;;;;;;;8.70;3.70;;;22.30;99.90;;;;;;5031485;28;20393;-89
2022/10/20 02:08:30;;;;;;;8.52;2.95;;;22.40;99.90;;;;;;5032079;28;20429;-80
2022/10/20 02:11:03;;;;;;;10.50;6.70;;;22.40;99.90;;;;;;5030951;28;20373;-80
2022/10/20 02:13:31;;;;;;;14.55;11.10;;;22.50;99.90;;;;;;5031408;28;20842;-79
2022/10/20 02:16:02;;;;;;;7.38;3.13;;;22.60;99.90;;;;;;5033034;28;20389;-83
2022/10/20 02:18:38;;;;;;;8.68;2.90;;;22.60;99.90;;;;;;5033415;28;20370;-80
2022/10/20 02:21:07;;;;;;;8.98;3.22;;;22.50;99.90;;;;;;5026083;28;20394;-83
2022/10/20 02:23:38;;;;;;;22.75;16.17;;;22.40;99.90;;;;;;5018580;28;20374;-79
2022/10/20 02:26:12;;;;;;;12.38;6.85;;;22.30;99.90;;;;;;5019374;28;20814;-80
2022/10/20 02:28:44;;;;;;;9.23;4.00;;;22.20;99.90;;;;;;5051841;28;20494;-81
2022/10/20 02:31:12;;;;;;;10.48;5.95;;;22.20;99.90;;;;;;5020030;28;20847;-84
2022/10/20 02:33:42;;;;;;;8.32;3.28;;;22.10;99.90;;;;;;5016259;28;20382;-90
2022/10/20 02:36:16;;;;;;;9.98;3.20;;;22.00;99.90;;;;;;5017704;28;20399;-85
2022/10/20 02:38:43;;;;;;;6.67;2.90;;;21.90;99.90;;;;;;5016695;28;20379;-79
2022/10/20 02:41:10;;;;;;;7.88;3.05;;;21.80;99.90;;;;;;5015711;28;20385;-80
2022/10/20 02:43:37;;;;;;;9.63;3.35;;;21.80;99.90;;;;;;5013692;28;20879;-84
2022/10/20 02:46:04;;;;;;;10.02;3.92;;;21.80;99.90;;;;;;5013649;28;20371;-82
2022/10/20 02:48:31;;;;;;;9.40;3.22;;;21.80;99.90;;;;;;5013127;28;20410;-86
2022/10/20 02:50:58;;;;;;;8.80;3.50;;;21.70;99.90;;;;;;5013434;28;20469;-83
2022/10/20 02:53:25;;;;;;;7.82;3.40;;;21.80;99.90;;;;;;5011835;28;20462;-81
2022/10/20 02:55:52;;;;;;;8.13;3.35;;;21.70;99.90;;;;;;5013320;28;20375;-79
2022/10/20 02:58:19;;;;;;;7.53;3.35;;;21.70;99.90;;;;;;5013745;28;20472;-85
2022/10/20 03:00:48;;;;;;;8.27;3.20;;;21.60;99.90;;;;;;5014789;28;20466;-88
2022/10/20 03:03:15;;;;;;;9.57;3.57;;;21.50;99.90;;;;;;5018059;28;20387;-79
2022/10/20 03:05:43;;;;;;;7.93;3.60;;;21.40;99.90;;;;;;5018554;28;20378;-84
2022/10/20 03:08:11;;;;;;;10.03;4.13;;;21.30;99.90;;;;;;5019574;28;20434;-79
2022/10/20 03:10:38;;;;;;;10.85;6.28;;;21.30;99.90;;;;;;5018374;28;20390;-80
2022/10/20 03:13:05;;;;;;;14.02;6.75;;;21.30;99.90;;;;;;5014557;28;20394;-86
2022/10/20 03:15:33;;;;;;;10.93;6.07;;;21.30;99.90;;;;;;5016679;28;20372;-90
2022/10/20 03:18:00;;;;;;;11.68;7.07;;;21.30;99.90;;;;;;5016999;28;20863;-87
2022/10/20 03:20:27;;;;;;;10.82;6.75;;;21.40;99.90;;;;;;5017459;28;20928;-86
2022/10/20 03:22:54;;;;;;;8.02;5.63;;;21.50;99.90;;;;;;5017024;28;20475;-87
2022/10/20 03:25:21;;;;;;;8.48;4.50;;;21.70;99.90;;;;;;5018953;28;20380;-81
2022/10/20 03:27:48;;;;;;;7.90;3.78;;;21.80;99.90;;;;;;5020569;28;20411;-85
2022/10/20 03:30:15;;;;;;;7.17;3.90;;;21.90;99.90;;;;;;5017533;28;20488;-86
2022/10/20 03:32:42;;;;;;;8.73;5.30;;;22.00;99.90;;;;;;5017471;28;20379;-89
2022/10/20 03:35:09;;;;;;;9.98;5.38;;;22.10;99.90;;;;;;5048893;28;20423;-84
2022/10/20 03:37:36;;;;;;;13.75;9.10;;;22.20;99.90;;;;;;5017187;28;20390;-83
2022/10/20 03:40:03;;;;;;;10.65;7.13;;;22.30;99.90;;;;;;5017361;28;20383;-89
2022/10/20 03:42:30;;;;;;;9.83;6.60;;;22.40;99.90;;;;;;5017488;28;20383;-86
2022/10/20 03:44:58;;;;;;;9.52;6.60;;;22.40;99.90;;;;;;5018139;28;20433;-81
2022/10/20 03:47:25;;;;;;;10.07;7.60;;;22.40;99.90;;;;;;5017023;28;20383;-87
2022/10/20 03:49:52;;;;;;;10.63;7.93;;;22.30;99.90;;;;;;5017174;28;20406;-87
2022/10/20 03:52:18;;;;;;;10.20;5.50;;;22.40;99.90;;;;;;5017145;28;20449;-82
2022/10/20 03:54:46;;;;;;;9.57;5.90;;;22.40;99.90;;;;;;5031079;28;20860;-81
2022/10/20 03:57:12;;;;;;;9.98;6.10;;;22.40;99.90;;;;;;5063378;28;20383;-81
2022/10/20 03:59:40;;;;;;;10.07;6.70;;;22.40;99.90;;;;;;5021646;28;20919;-88
2022/10/20 04:02:06;;;;;;;9.88;6.40;;;22.40;99.90;;;;;;5016472;28;20391;-84
2022/10/20 04:04:33;;;;;;;13.05;8.93;;;22.40;99.90;;;;;;5016707;28;20406;-82
2022/10/20 04:07:00;;;;;;;13.07;9.43;;;22.30;99.90;;;;;;5017126;28;20461;-92
2022/10/20 04:09:27;;;;;;;11.63;8.07;;;22.20;99.90;;;;;;5017117;28;20407;-90
2022/10/20 04:11:54;;;;;;;15.30;12.27;;;22.10;99.90;;;;;;5017147;28;20375;-90
2022/10/20 04:14:21;;;;;;;13.25;9.40;;;21.90;99.90;;;;;;5016609;28;20375;-90
2022/10/20 04:16:48;;;;;;;13.18;9.27;;;21.70;99.90;;;;;;5017159;28;20478;-88
2022/10/20 04:19:15;;;;;;;10.85;8.00;;;21.60;99.90;;;;;;5016552;28;20437;-84
2022/10/20 04:21:42;;;;;;;6.20;3.88;;;21.50;99.90;;;;;;5016721;28;20439;-85
2022/10/20 04:24:09;;;;;;;4.65;3.60;;;21.40;99.90;;;;;;5016840;28;20462;-81
2022/10/20 04:26:36;;;;;;;3.47;3.00;;;21.40;99.90;;;;;;5015141;28;20449;-86
2022/10/20 04:29:03;;;;;;;4.30;3.10;;;21.30;99.90;;;;;;5017982;28;20482;-89
2022/10/20 04:31:30;;;;;;;3.50;3.05;;;21.40;99.90;;;;;;5017177;28;20379;-82
2022/10/20 04:33:57;;;;;;;3.90;3.13;;;21.40;99.90;;;;;;5016591;28;20387;-88
2022/10/20 04:36:25;;;;;;;4.55;3.35;;;21.50;99.90;;;;;;5015561;28;20379;-87
2022/10/20 04:38:52;;;;;;;4.70;3.20;;;21.50;99.90;;;;;;5017376;28;20391;-91
2022/10/20 04:41:19;;;;;;;4.15;2.20;;;21.40;99.90;;;;;;5054528;28;20382;-87
2022/10/20 04:43:51;;;;;;;2.75;2.20;;;21.40;99.90;;;;;;5055261;28;20376;-83
2022/10/20 04:46:18;;;;;;;1.92;1.80;;;21.40;99.90;;;;;;5054514;28;20388;-80
2022/10/20 04:48:45;;;;;;;3.53;2.17;;;21.40;99.90;;;;;;5054688;28;20403;-86
2022/10/20 04:51:14;;;;;;;3.25;2.38;;;21.30;99.90;;;;;;5056833;28;20839;-89
2022/10/20 04:53:41;;;;;;;4.93;2.30;;;21.40;99.90;;;;;;5053696;28;20387;-80
2022/10/20 04:56:13;;;;;;;2.97;1.95;;;21.50;99.90;;;;;;5036543;28;20791;-82
2022/10/20 04:58:40;;;;;;;2.88;1.80;;;21.50;99.90;;;;;;5055599;28;20472;-87
2022/10/20 05:01:09;;;;;;;3.15;1.80;;;21.50;99.90;;;;;;5053785;28;20448;-88
2022/10/20 05:03:38;;;;;;;3.13;1.30;;;21.40;99.90;;;;;;5053894;28;20399;-80
2022/10/20 05:06:16;;;;;;;2.50;1.30;;;21.40;99.90;;;;;;5054084;28;20371;-91
2022/10/20 05:08:48;;;;;;;1.75;1.20;;;21.30;99.90;;;;;;5053973;28;20403;-89
2022/10/20 05:11:16;;;;;;;2.23;1.20;;;21.20;99.90;;;;;;5054406;28;20383;-84
2022/10/20 05:13:44;;;;;;;2.58;1.10;;;21.40;99.90;;;;;;5054221;28;20961;-91
2022/10/20 05:16:12;;;;;;;2.67;1.20;;;21.50;99.90;;;;;;5054021;28;20469;-91
2022/10/20 05:18:40;;;;;;;2.58;1.00;;;21.50;99.90;;;;;;5036274;28;20394;-81
2022/10/20 05:21:09;;;;;;;2.08;0.90;;;21.60;99.90;;;;;;5047868;28;20448;-88
2022/10/20 05:23:38;;;;;;;2.63;1.13;;;21.70;99.90;;;;;;5048001;28;20538;-86
2022/10/20 05:26:07;;;;;;;3.08;1.10;;;21.60;99.90;;;;;;5016159;28;20735;-82
2022/10/20 05:28:35;;;;;;;2.33;1.00;;;21.60;99.90;;;;;;5015020;28;20457;-82
2022/10/20 05:31:04;;;;;;;2.22;1.20;;;21.50;99.90;;;;;;5015737;28;20498;-82
2022/10/20 05:33:31;;;;;;;3.08;1.73;;;21.60;99.90;;;;;;5045654;28;20467;-83
2022/10/20 05:35:58;;;;;;;3.47;1.50;;;21.60;99.90;;;;;;5016011;28;20371;-81
2022/10/20 05:38:25;;;;;;;3.53;1.40;;;21.50;99.90;;;;;;5016072;28;20764;-82
2022/10/20 05:40:52;;;;;;;11.88;9.75;;;21.50;99.90;;;;;;5015328;28;20429;-83
2022/10/20 05:43:19;;;;;;;5.30;1.73;;;21.50;99.90;;;;;;5015132;28;20386;-84
2022/10/20 05:45:52;;;;;;;4.07;1.90;;;21.60;99.90;;;;;;4998155;28;20384;-88
2022/10/20 05:48:19;;;;;;;5.53;2.30;;;21.60;99.90;;;;;;5013108;28;20481;-94
2022/10/20 05:50:46;;;;;;;4.55;2.00;;;21.60;99.90;;;;;;5013414;28;20395;-83
2022/10/20 05:53:13;;;;;;;3.55;1.50;;;21.60;99.90;;;;;;5014286;28;20478;-82
2022/10/20 05:55:40;;;;;;;4.40;1.50;;;21.60;99.90;;;;;;5013911;28;20386;-78
2022/10/20 05:58:07;;;;;;;4.23;1.60;;;21.70;99.90;;;;;;5031191;28;20382;-83
2022/10/20 06:00:40;;;;;;;5.60;1.40;;;21.60;99.90;;;;;;5016239;28;20472;-89
2022/10/20 06:03:08;;;;;;;4.70;1.40;;;21.50;99.90;;;;;;5015038;28;20892;-87
2022/10/20 06:05:35;;;;;;;5.95;1.55;;;21.50;99.90;;;;;;5015812;28;20425;-90
2022/10/20 06:08:03;;;;;;;6.28;1.60;;;21.50;99.90;;;;;;5015620;28;20502;-90
2022/10/20 06:10:30;;;;;;;4.15;1.20;;;21.50;99.90;;;;;;5015778;28;20387;-86
2022/10/20 06:12:57;;;;;;;4.80;1.50;;;21.50;99.90;;;;;;5014869;28;20403;-82
2022/10/20 06:15:24;;;;;;;3.55;1.20;;;21.40;99.90;;;;;;5015462;28;20398;-82
2022/10/20 06:17:54;;;;;;;4.70;1.70;;;21.30;99.90;;;;;;5016812;28;20411;-80
2022/10/20 06:20:21;;;;;;;3.05;1.17;;;21.20;99.90;;;;;;5020432;28;20382;-87
2022/10/20 06:22:48;;;;;;;4.05;1.40;;;21.20;99.90;;;;;;5019010;28;20371;-88
2022/10/20 06:25:15;;;;;;;3.05;1.15;;;21.10;99.90;;;;;;5019560;28;20851;-85
2022/10/20 06:27:43;;;;;;;3.45;1.10;;;21.10;99.90;;;;;;5052239;28;20391;-85
2022/10/20 06:30:10;;;;;;;4.70;1.30;;;21.10;99.90;;;;;;5016388;28;20399;-88
2022/10/20 06:32:37;;;;;;;4.75;1.20;;;21.10;99.90;;;;;;5016282;28;20425;-90
2022/10/20 06:35:05;;;;;;;2.95;1.30;;;21.00;99.90;;;;;;5015539;28;20466;-87
2022/10/20 06:37:35;;;;;;;3.72;1.23;;;20.90;99.90;;;;;;5016468;28;20425;-89
2022/10/20 06:40:03;;;;;;;2.80;1.00;;;20.80;99.90;;;;;;5017596;28;20471;-89
2022/10/20 06:42:31;;;;;;;3.28;1.20;;;20.80;99.90;;;;;;5018132;28;20372;-90
2022/10/20 06:44:58;;;;;;;4.35;1.30;;;20.70;99.90;;;;;;5025617;28;20876;-84
2022/10/20 06:47:25;;;;;;;4.27;1.23;;;20.60;99.90;;;;;;5017984;28;20379;-87
2022/10/20 06:49:52;;;;;;;4.50;1.20;;;20.60;99.90;;;;;;5023257;28;20900;-83
2022/10/20 06:52:19;;;;;;;3.17;1.50;;;20.60;99.90;;;;;;5022094;28;20911;-88
2022/10/20 06:54:46;;;;;;;2.92;1.10;;;20.50;99.90;;;;;;5022800;28;20933;-90
2022/10/20 06:57:13;;;;;;;3.67;1.42;;;20.50;99.90;;;;;;5025345;28;20375;-91
2022/10/20 06:59:40;;;;;;;2.90;1.20;;;20.50;99.90;;;;;;5023970;28;20379;-90
2022/10/20 07:02:11;;;;;;;2.53;1.15;;;20.50;99.90;;;;;;5022469;28;20383;-86
2022/10/20 07:04:38;;;;;;;2.70;1.00;;;20.50;99.90;;;;;;5024193;28;20395;-85
2022/10/20 07:07:05;;;;;;;2.20;0.90;;;20.40;99.90;;;;;;5024199;28;20912;-79
2022/10/20 07:09:32;;;;;;;2.42;0.98;;;20.40;99.90;;;;;;5022432;28;20399;-86
2022/10/20 07:11:59;;;;;;;2.83;1.10;;;20.40;99.90;;;;;;5026467;28;20378;-84
2022/10/20 07:14:30;;;;;;;3.80;1.10;;;20.40;99.90;;;;;;5026612;28;20359;-83
2022/10/20 07:16:59;;;;;;;2.63;1.20;;;20.50;99.90;;;;;;5026239;28;20382;-81
2022/10/20 07:19:26;;;;;;;1.75;1.00;;;20.50;99.90;;;;;;5029326;28;20383;-80
2022/10/20 07:21:58;;;;;;;1.90;0.90;;;20.40;99.90;;;;;;5031735;28;20418;-81
2022/10/20 07:24:28;;;;;;;2.55;0.88;;;20.40;99.90;;;;;;5030524;28;20395;-83
2022/10/20 07:26:58;;;;;;;3.20;0.98;;;20.40;99.90;;;;;;5028827;28;20382;-84
2022/10/20 07:29:26;;;;;;;2.60;1.13;;;20.40;99.90;;;;;;5029063;28;20394;-84
2022/10/20 07:31:53;;;;;;;1.92;1.10;;;20.40;99.90;;;;;;5065490;28;20789;-85
2022/10/20 07:34:22;;;;;;;2.95;1.10;;;20.30;99.90;;;;;;5063391;28;20897;-86
2022/10/20 07:36:49;;;;;;;2.17;1.00;;;20.30;99.90;;;;;;5024137;28;20759;-88
2022/10/20 07:39:16;;;;;;;2.72;1.00;;;20.20;99.90;;;;;;5021346;28;20379;-89
2022/10/20 07:41:46;;;;;;;2.20;1.10;;;20.10;99.90;;;;;;5022869;28;20406;-90
2022/10/20 07:44:13;;;;;;;2.70;1.10;;;20.10;99.90;;;;;;5024471;28;20367;-89
2022/10/20 07:46:59;;;;;;;3.00;1.67;;;20.10;99.90;;;;;;5029200;28;20436;-80
2022/10/20 07:49:26;;;;;;;3.28;1.08;;;20.00;99.90;;;;;;5028409;28;20438;-91
2022/10/20 07:51:56;;;;;;;16.73;10.70;;;19.90;99.90;;;;;;5064378;28;20372;-91
2022/10/20 07:54:24;;;;;;;15.10;10.35;;;19.90;99.90;;;;;;5029922;28;20427;-84
2022/10/20 07:57:03;;;;;;;14.93;8.75;;;19.90;99.90;;;;;;5032290;28;20383;-83
2022/10/20 07:59:30;;;;;;;6.35;2.58;;;19.80;99.90;;;;;;5044561;28;20375;-91
2022/10/20 08:01:58;;;;;;;7.82;2.33;;;19.80;99.90;;;;;;5027566;28;20393;-90
2022/10/20 08:04:30;;;;;;;9.85;5.50;;;19.70;99.90;;;;;;5032039;28;20382;-87
2022/10/20 08:07:17;;;;;;;13.60;9.00;;;19.70;99.90;;;;;;5034851;28;20386;-85
2022/10/20 08:09:48;;;;;;;5.82;3.13;;;19.60;99.90;;;;;;5037549;28;20416;-88
2022/10/20 08:12:21;;;;;;;6.57;3.85;;;19.60;99.90;;;;;;5071027;28;20386;-83
2022/10/20 08:14:50;;;;;;;7.03;2.63;;;19.50;99.90;;;;;;5038435;28;20364;-85
2022/10/20 08:17:20;;;;;;;4.47;2.33;;;19.50;99.90;;;;;;5038548;28;20367;-83
2022/10/20 08:20:10;;;;;;;4.30;1.83;;;19.50;99.90;;;;;;5038920;28;20382;-81
2022/10/20 08:22:55;;;;;;;4.40;2.40;;;19.50;99.90;;;;;;5086536;28;20392;-80
2022/10/20 08:25:39;;;;;;;6.45;3.05;;;19.40;99.90;;;;;;5047592;28;20417;-79
2022/10/20 08:28:08;;;;;;;3.83;1.80;;;19.40;99.90;;;;;;5055710;28;20405;-83
2022/10/20 08:30:47;;;;;;;4.93;2.08;;;19.40;99.90;;;;;;5056191;28;20445;-82
2022/10/20 08:33:21;;;;;;;3.50;1.77;;;19.40;99.90;;;;;;5056856;28;20375;-83
2022/10/20 08:35:51;;;;;;;5.30;1.80;;;19.40;99.90;;;;;;5056346;28;20412;-79
2022/10/20 08:38:22;;;;;;;4.70;2.55;;;19.40;99.90;;;;;;5036898;28;20367;-84
2022/10/20 08:40:49;;;;;;;5.25;2.40;;;19.30;99.90;;;;;;5034187;28;20858;-83
2022/10/20 08:43:20;;;;;;;5.65;2.40;;;19.30;99.90;;;;;;5034979;28;20379;-81
2022/10/20 08:45:49;;;;;;;8.73;4.80;;;19.30;99.90;;;;;;5020351;28;20358;-83
2022/10/20 08:48:25;;;;;;;14.93;10.00;;;19.30;99.90;;;;;;5041532;28;20399;-84
2022/10/20 08:50:54;;;;;;;5.10;2.72;;;19.20;99.90;;;;;;5078236;28;20363;-85
2022/10/20 08:53:34;;;;;;;3.90;2.28;;;19.20;99.90;;;;;;5076568;28;20423;-83
2022/10/20 08:56:01;;;;;;;4.57;1.90;;;19.20;99.90;;;;;;5062919;28;20394;-83
2022/10/20 08:58:28;;;;;;;3.85;2.03;;;19.10;99.90;;;;;;5055220;28;20439;-86
2022/10/20 09:01:19;;;;;;;3.53;2.00;;;19.10;99.90;;;;;;5056622;28;20366;-87
2022/10/20 09:04:13;;;;;;;5.25;2.00;;;19.20;99.90;;;;;;5056995;28;20369;-82
2022/10/20 09:06:44;;;;;;;4.22;2.20;;;19.20;99.90;;;;;;5042873;28;20411;-88
2022/10/20 09:09:20;;;;;;;4.28;2.20;;;19.20;99.90;;;;;;5076067;28;20400;-86
2022/10/20 09:11:52;;;;;;;4.95;2.35;;;19.20;99.90;;;;;;5075543;28;20374;-89
2022/10/20 09:14:19;;;;;;;5.50;2.50;;;19.20;99.90;;;;;;5072729;28;20368;-88
2022/10/20 09:16:47;;;;;;;6.13;2.63;;;19.20;99.90;;;;;;5054258;28;20349;-89
2022/10/20 09:19:21;;;;;;;5.22;2.65;;;19.20;99.90;;;;;;5051931;28;20789;-88
2022/10/20 09:22:03;;;;;;;5.95;2.83;;;19.20;99.90;;;;;;5045680;28;20400;-81
2022/10/20 09:24:31;;;;;;;5.25;2.60;;;19.20;99.90;;;;;;5046106;28;20405;-90
2022/10/20 09:27:18;;;;;;;5.67;2.87;;;19.20;99.90;;;;;;5026113;28;20399;-88
2022/10/20 09:29:51;;;;;;;4.60;3.07;;;19.20;99.90;;;;;;5026193;28;20421;-83
2022/10/20 09:32:35;;;;;;;4.28;2.88;;;19.20;99.90;;;;;;5024185;28;20379;-86
2022/10/20 09:35:33;;;;;;;6.30;3.00;;;19.20;99.90;;;;;;5024465;28;20383;-89
2022/10/20 09:38:22;;;;;;;6.32;3.00;;;19.20;99.90;;;;;;5026396;28;20399;-86
2022/10/20 09:41:09;;;;;;;6.15;2.88;;;19.30;99.90;;;;;;5006370;28;20850;-88
2022/10/20 09:43:47;;;;;;;4.90;2.47;;;19.30;99.90;;;;;;5021732;28;20383;-88
2022/10/20 09:46:20;;;;;;;4.28;2.50;;;19.20;99.90;;;;;;5023713;28;20377;-83
2022/10/20 09:48:54;;;;;;;4.68;2.30;;;19.20;99.90;;;;;;5032597;28;20439;-88
2022/10/20 09:51:26;;;;;;;4.63;2.60;;;19.20;99.90;;;;;;5028847;28;20382;-87
2022/10/20 09:53:54;;;;;;;6.45;2.60;;;19.20;99.90;;;;;;5045244;28;20378;-87
2022/10/20 09:56:34;;;;;;;5.03;2.85;;;19.10;99.90;;;;;;5044339;28;20372;-86
2022/10/20 09:59:08;;;;;;;4.75;2.90;;;19.10;99.90;;;;;;5043124;28;20457;-89
2022/10/20 10:02:03;;;;;;;6.20;2.90;;;19.00;99.90;;;;;;5041314;28;20393;-85
2022/10/20 10:04:38;;;;;;;7.18;3.30;;;19.00;99.90;;;;;;5021244;28;20391;-86
2022/10/20 10:07:25;;;;;;;5.30;3.20;;;19.00;99.90;;;;;;5020503;28;20389;-86
2022/10/20 10:10:27;;;;;;;4.78;2.90;;;19.00;99.90;;;;;;5018204;28;20518;-84
2022/10/20 10:13:00;;;;;;;6.40;3.20;;;19.00;99.90;;;;;;5019845;28;20376;-86
2022/10/20 10:15:34;;;;;;;5.85;3.40;;;19.10;99.90;;;;;;5051945;28;20395;-86
2022/10/20 10:18:15;;;;;;;6.15;3.05;;;19.10;99.90;;;;;;5019960;28;20379;-84
2022/10/20 10:21:00;;;;;;;7.70;3.58;;;19.10;99.90;;;;;;5017905;28;20391;-87
2022/10/20 10:23:35;;;;;;;4.75;3.20;;;19.10;99.90;;;;;;5019482;28;20885;-88
2022/10/20 10:26:03;;;;;;;5.03;3.40;;;19.10;99.90;;;;;;5024638;28;20414;-86
2022/10/20 10:28:40;;;;;;;6.00;3.40;;;19.10;99.90;;;;;;5023980;28;20470;-85
2022/10/20 10:31:16;;;;;;;6.38;3.67;;;19.20;99.90;;;;;;5024105;28;20374;-86
2022/10/20 10:33:43;;;;;;;6.32;3.70;;;19.20;99.90;;;;;;5024017;28;20727;-86
2022/10/20 10:36:35;;;;;;;7.22;3.80;;;19.20;99.90;;;;;;5038177;28;20381;-87
2022/10/20 10:39:12;;;;;;;6.03;3.70;;;19.20;99.90;;;;;;5024412;28;20470;-88
2022/10/20 10:42:00;;;;;;;5.43;3.65;;;19.20;99.90;;;;;;5023053;28;20379;-85
2022/10/20 10:45:05;;;;;;;5.23;3.80;;;19.20;99.90;;;;;;5022742;28;20414;-89
2022/10/20 10:48:13;;;;;;;6.53;3.43;;;19.20;99.90;;;;;;5040498;28;20400;-90
2022/10/20 10:50:54;;;;;;;7.18;3.83;;;19.20;99.90;;;;;;5040381;28;20386;-89
2022/10/20 10:53:35;;;;;;;5.70;3.90;;;19.10;99.90;;;;;;5040644;28;20420;-87
2022/10/20 10:56:33;;;;;;;6.22;4.00;;;19.10;99.90;;;;;;5040016;28;20389;-85
2022/10/20 10:59:06;;;;;;;9.32;4.60;;;19.10;99.90;;;;;;5039858;28;20397;-91
2022/10/20 11:01:39;;;;;;;8.57;3.85;;;19.10;99.90;;;;;;5040300;28;20383;-90
2022/10/20 11:04:50;;;;;;;6.95;3.67;;;19.10;99.90;;;;;;5040459;28;20745;-89
2022/10/20 11:07:33;;;;;;;6.93;3.70;;;19.00;99.90;;;;;;5001603;28;20764;-85
2022/10/20 11:10:21;;;;;;;8.87;4.00;;;18.90;99.90;;;;;;5001622;28;20433;-86
2022/10/20 11:13:18;;;;;;;7.28;4.13;;;18.90;99.90;;;;;;5001139;28;20405;-88
2022/10/20 11:15:55;;;;;;;6.40;3.70;;;18.90;99.90;;;;;;5000395;28;20417;-90
2022/10/20 11:18:41;;;;;;;6.38;4.15;;;18.80;99.90;;;;;;5000698;28;20903;-85
2022/10/20 11:21:34;;;;;;;6.22;4.15;;;18.80;99.90;;;;;;5001175;28;20404;-84
2022/10/20 11:24:42;;;;;;;8.38;4.25;;;18.80;99.90;;;;;;5000870;28;20460;-87
2022/10/20 11:27:23;;;;;;;7.38;4.35;;;18.80;99.90;;;;;;5000402;28;20397;-81
2022/10/20 11:30:03;;;;;;;6.85;4.22;;;18.80;99.90;;;;;;4999390;28;20490;-89
2022/10/20 11:32:52;;;;;;;7.18;4.38;;;18.90;99.90;;;;;;5000131;28;20378;-85
2022/10/20 11:35:24;;;;;;;7.53;4.72;;;18.90;99.90;;;;;;5000673;28;20404;-86
2022/10/20 11:38:32;;;;;;;6.77;4.90;;;18.90;99.90;;;;;;5000383;28;20373;-83
2022/10/20 11:41:21;;;;;;;9.57;4.50;;;18.90;99.90;;;;;;5001020;28;20419;-84
2022/10/20 11:44:12;;;;;;;8.43;4.43;;;18.80;99.90;;;;;;5023103;28;20857;-82
2022/10/20 11:47:19;;;;;;;10.23;5.40;;;18.70;99.90;;;;;;5039458;28;20416;-83
2022/10/20 11:49:49;;;;;;;8.20;4.70;;;18.60;99.90;;;;;;5038703;28;20416;-82
2022/10/20 11:52:36;;;;;;;9.00;5.68;;;18.60;99.90;;;;;;5035534;28;20777;-80
2022/10/20 11:55:33;;;;;;;9.80;5.40;;;18.60;99.90;;;;;;5034014;28;20440;-83
2022/10/20 11:58:34;;;;;;;8.00;5.40;;;18.60;99.90;;;;;;5025835;28;20388;-82
2022/10/20 12:01:22;;;;;;;9.00;6.25;;;18.50;99.90;;;;;;5016372;28;20895;-85
2022/10/20 12:04:16;;;;;;;8.10;5.95;;;18.50;99.90;;;;;;5015911;28;20387;-82
2022/10/20 12:07:10;;;;;;;11.27;6.63;;;18.50;99.90;;;;;;5017018;28;20911;-83
2022/10/20 12:09:43;;;;;;;8.18;5.80;;;18.90;99.90;;;;;;5030605;28;20383;-80
2022/10/20 12:12:19;;;;;;;9.30;6.45;;;18.40;99.90;;;;;;5028932;28;20467;-80
2022/10/20 12:14:57;;;;;;;10.25;5.85;;;18.30;99.90;;;;;;5027957;28;20379;-79
2022/10/20 12:17:37;;;;;;;11.13;6.20;;;18.30;99.90;;;;;;5018553;28;20367;-84
2022/10/20 12:20:36;;;;;;;9.88;6.60;;;18.20;99.90;;;;;;5018574;28;20371;-84
2022/10/20 12:23:03;;;;;;;12.57;7.45;;;18.10;99.90;;;;;;5036144;28;20380;-85
2022/10/20 12:25:30;;;;;;;11.35;7.47;;;18.10;99.90;;;;;;5035215;28;20382;-81
2022/10/20 12:28:21;;;;;;;8.88;6.80;;;18.00;99.90;;;;;;5038332;28;20396;-85
2022/10/20 12:30:54;;;;;;;12.70;7.47;;;18.00;99.90;;;;;;5037130;28;20382;-85
2022/10/20 12:33:53;;;;;;;10.75;7.80;;;17.90;99.90;;;;;;5037724;28;20374;-81
2022/10/20 12:36:31;;;;;;;10.47;7.13;;;17.90;99.90;;;;;;5038258;28;20381;-82
2022/10/20 12:39:17;;;;;;;10.80;7.30;;;18.00;99.90;;;;;;5037193;28;20374;-82
2022/10/20 12:41:58;;;;;;;8.60;6.82;;;18.00;99.90;;;;;;5037990;28;20464;-83
2022/10/20 12:44:28;;;;;;;11.68;7.10;;;18.00;99.90;;;;;;5036166;28;20733;-80
2022/10/20 12:47:05;;;;;;;11.32;7.05;;;18.00;99.90;;;;;;5034888;28;20407;-83
2022/10/20 12:49:39;;;;;;;10.20;7.05;;;17.90;99.90;;;;;;5032501;28;20405;-84
2022/10/20 12:52:16;;;;;;;12.68;7.35;;;17.90;99.90;;;;;;5032383;28;20373;-84
2022/10/20 12:54:52;;;;;;;10.48;6.97;;;17.90;99.90;;;;;;5032400;28;20492;-82
2022/10/20 12:57:40;;;;;;;11.40;7.68;;;17.90;99.90;;;;;;5032464;28;20369;-81
2022/10/20 13:00:27;;;;;;;11.05;7.47;;;17.90;99.90;;;;;;5018422;28;20387;-81
2022/10/20 13:02:56;;;;;;;10.10;7.13;;;17.90;99.90;;;;;;5014250;28;20375;-84
2022/10/20 13:05:26;;;;;;;10.50;7.28;;;17.90;99.90;;;;;;5014225;28;20871;-83
2022/10/20 13:07:53;;;;;;;10.60;8.27;;;17.80;99.90;;;;;;5014550;28;20442;-84
2022/10/20 13:10:36;;;;;;;11.90;8.27;;;17.80;99.90;;;;;;5014438;28;20408;-81
2022/10/20 13:13:06;;;;;;;15.75;9.20;;;17.80;99.90;;;;;;5045926;28;20385;-83
2022/10/20 13:16:05;;;;;;;12.70;9.25;;;17.70;99.90;;;;;;5014121;28;20860;-83
2022/10/20 13:18:37;;;;;;;13.80;9.48;;;17.80;99.90;;;;;;5046248;28;20399;-80
2022/10/20 13:21:26;;;;;;;13.20;9.35;;;17.80;99.90;;;;;;5017357;28;20407;-83